createdAt,value
2016-12-28T00:00:04.568Z,2.9
2016-12-28T00:05:03.948Z,2.9
2016-12-28T00:10:04.735Z,3.0
2016-12-28T00:15:04.211Z,3.2
2016-12-28T00:20:04.656Z,3.2
2016-12-28T00:25:03.923Z,3.7
2016-12-28T00:30:04.798Z,3.7
2016-12-28T00:35:03.967Z,4.0
2016-12-28T00:40:04.220Z,4.0
2016-12-28T00:45:04.603Z,4.0
2016-12-28T00:50:04.065Z,4.0
2016-12-28T00:55:04.828Z,4.0
2016-12-28T01:00:04.322Z,4.0
2016-12-28T01:05:04.193Z,3.7
2016-12-28T01:10:04.333Z,3.7
2016-12-28T01:15:04.702Z,4.0
2016-12-28T01:20:04.155Z,3.7
2016-12-28T01:25:04.016Z,4.0
2016-12-28T01:30:04.017Z,4.0
2016-12-28T01:35:04.460Z,3.7
2016-12-28T01:40:04.265Z,3.7
2016-12-28T01:45:04.826Z,3.7
2016-12-28T01:50:04.421Z,3.7
2016-12-28T01:55:04.416Z,3.7
2016-12-28T02:00:04.987Z,3.7
2016-12-28T02:05:04.625Z,4.0
2016-12-28T02:10:04.329Z,4.0
2016-12-28T02:15:04.183Z,3.7
2016-12-28T02:20:04.417Z,3.2
2016-12-28T02:25:04.296Z,3.2
2016-12-28T02:30:04.459Z,3.2
2016-12-28T02:35:04.419Z,3.0
2016-12-28T02:40:04.478Z,3.0
2016-12-28T02:45:03.883Z,3.2
2016-12-28T02:50:04.513Z,3.0
2016-12-28T02:55:03.970Z,3.0
2016-12-28T03:00:05.000Z,3.0
2016-12-28T03:05:07.842Z,3.2
2016-12-28T03:10:04.019Z,3.2
2016-12-28T03:15:04.401Z,3.2
2016-12-28T03:20:04.772Z,3.2
2016-12-28T03:25:03.953Z,3.0
2016-12-28T03:30:04.178Z,2.9
2016-12-28T03:35:04.288Z,2.9
2016-12-28T03:40:04.780Z,3.0
2016-12-28T03:45:04.119Z,2.5
2016-12-28T03:50:04.415Z,2.7
2016-12-28T03:55:04.822Z,2.5
2016-12-28T04:00:04.369Z,2.4
2016-12-28T04:05:05.427Z,2.4
2016-12-28T04:10:04.360Z,2.7
2016-12-28T04:15:04.686Z,2.7
2016-12-28T04:20:04.375Z,2.7
2016-12-28T04:25:04.708Z,3.0
2016-12-28T04:30:04.780Z,3.2
2016-12-28T04:35:04.199Z,3.2
2016-12-28T04:40:04.275Z,3.2
2016-12-28T04:45:04.507Z,3.2
2016-12-28T04:50:04.922Z,3.0
2016-12-28T04:55:04.307Z,2.9
2016-12-28T05:00:04.438Z,2.9
2016-12-28T05:05:04.743Z,2.9
2016-12-28T05:10:04.157Z,2.7
2016-12-28T05:15:04.157Z,2.7
2016-12-28T05:20:04.170Z,2.7
2016-12-28T05:25:04.271Z,2.7
2016-12-28T05:30:04.994Z,2.7
2016-12-28T05:35:04.064Z,2.7
2016-12-28T05:40:04.144Z,2.7
2016-12-28T05:45:04.217Z,2.7
2016-12-28T05:50:04.347Z,2.7
2016-12-28T05:55:04.210Z,2.9
2016-12-28T06:00:03.826Z,2.9
2016-12-28T06:05:04.778Z,2.9
2016-12-28T06:10:04.606Z,3.0
2016-12-28T06:15:04.258Z,3.0
2016-12-28T06:20:04.323Z,3.0
2016-12-28T06:25:04.027Z,2.9
2016-12-28T06:30:04.092Z,3.0
2016-12-28T06:35:04.154Z,3.2
2016-12-28T06:40:04.333Z,2.9
2016-12-28T06:45:04.345Z,3.0
2016-12-28T06:50:04.285Z,2.9
2016-12-28T06:55:04.157Z,2.9
2016-12-28T07:00:04.007Z,2.9
2016-12-28T07:05:03.981Z,3.0
2016-12-28T07:10:04.285Z,3.0
2016-12-28T07:15:04.667Z,3.0
2016-12-28T07:20:04.229Z,3.2
2016-12-28T07:25:04.607Z,3.0
2016-12-28T07:30:04.693Z,3.2
2016-12-28T07:35:03.944Z,3.0
2016-12-28T07:40:04.400Z,3.0
2016-12-28T07:45:04.921Z,3.0
2016-12-28T07:50:04.563Z,3.0
2016-12-28T07:55:04.086Z,3.2
2016-12-28T08:00:04.425Z,3.0
2016-12-28T08:05:04.045Z,3.0
2016-12-28T08:10:04.391Z,3.2
2016-12-28T08:15:04.717Z,3.0
2016-12-28T08:20:04.935Z,3.0
2016-12-28T08:25:04.840Z,3.0
2016-12-28T08:30:04.175Z,3.0
2016-12-28T08:35:05.520Z,3.0
2016-12-28T08:40:04.406Z,3.0
2016-12-28T08:45:04.279Z,3.0
2016-12-28T08:50:04.204Z,3.2
2016-12-28T08:55:04.727Z,3.2
2016-12-28T09:00:04.487Z,3.5
2016-12-28T09:05:04.234Z,3.5
2016-12-28T09:10:04.839Z,3.7
2016-12-28T09:15:04.136Z,3.7
2016-12-28T09:20:04.415Z,4.0
2016-12-28T09:25:04.647Z,4.0
2016-12-28T09:30:03.968Z,4.0
2016-12-28T09:35:04.449Z,4.0
2016-12-28T09:40:04.012Z,4.0
2016-12-28T09:45:04.386Z,4.0
2016-12-28T09:50:03.945Z,3.7
2016-12-28T09:55:04.165Z,4.0
2016-12-28T10:00:03.834Z,4.0
2016-12-28T10:05:04.932Z,4.0
2016-12-28T10:10:04.274Z,3.7
2016-12-28T10:15:04.403Z,4.0
2016-12-28T10:20:04.661Z,4.0
2016-12-28T10:25:04.724Z,4.0
2016-12-28T10:30:04.648Z,4.0
2016-12-28T10:35:04.538Z,4.3
2016-12-28T10:40:04.656Z,4.5
2016-12-28T10:45:04.355Z,4.5
2016-12-28T10:50:04.316Z,4.5
2016-12-28T10:55:04.271Z,4.5
2016-12-28T11:00:04.478Z,4.5
2016-12-28T11:05:04.091Z,4.8
2016-12-28T11:10:04.093Z,4.5
2016-12-28T11:15:04.003Z,4.8
2016-12-28T11:20:04.860Z,5.3
2016-12-28T11:25:04.374Z,5.0
2016-12-28T11:30:04.304Z,5.0
2016-12-28T11:35:04.046Z,4.8
2016-12-28T11:40:04.470Z,4.8
2016-12-28T11:45:04.236Z,5.0
2016-12-28T11:50:04.384Z,4.5
2016-12-28T11:55:04.741Z,4.5
2016-12-28T12:00:04.982Z,4.8
2016-12-28T12:05:04.841Z,4.8
2016-12-28T12:10:03.990Z,4.5
2016-12-28T12:15:04.215Z,4.5
2016-12-28T12:20:04.475Z,5.0
2016-12-28T12:25:04.484Z,5.0
2016-12-28T12:30:04.650Z,5.0
2016-12-28T12:35:03.863Z,4.8
2016-12-28T12:40:04.712Z,4.8
2016-12-28T12:45:04.140Z,4.5
2016-12-28T12:50:03.933Z,4.5
2016-12-28T12:55:04.172Z,4.5
2016-12-28T13:00:03.987Z,4.0
2016-12-28T13:05:04.477Z,4.3
2016-12-28T13:10:04.707Z,4.5
2016-12-28T13:15:04.468Z,4.5
2016-12-28T13:20:04.607Z,5.0
2016-12-28T13:25:04.868Z,4.8
2016-12-28T13:30:04.874Z,5.0
2016-12-28T13:35:04.779Z,5.0
2016-12-28T13:40:04.653Z,4.8
2016-12-28T13:45:04.795Z,5.0
2016-12-28T13:50:04.882Z,4.8
2016-12-28T13:55:03.942Z,4.5
2016-12-28T14:00:03.760Z,5.0
2016-12-28T14:05:04.430Z,4.8
2016-12-28T14:10:04.748Z,5.0
2016-12-28T14:15:04.190Z,4.8
2016-12-28T14:20:04.126Z,5.0
2016-12-28T14:25:04.063Z,5.3
2016-12-28T14:30:03.986Z,5.3
2016-12-28T14:35:04.980Z,5.5
2016-12-28T14:40:04.631Z,5.4
2016-12-28T14:45:04.845Z,5.5
2016-12-28T14:50:04.486Z,5.4
2016-12-28T14:55:03.855Z,5.4
2016-12-28T15:00:04.119Z,5.4
2016-12-28T15:05:04.336Z,5.0
2016-12-28T15:10:04.551Z,4.8
2016-12-28T15:15:04.802Z,5.0
2016-12-28T15:20:04.809Z,4.8
2016-12-28T15:25:04.872Z,5.0
2016-12-28T15:30:04.375Z,4.8
2016-12-28T15:35:04.305Z,4.8
2016-12-28T15:40:04.339Z,4.8
2016-12-28T15:45:03.961Z,4.8
2016-12-28T15:50:04.032Z,4.8
2016-12-28T15:55:04.487Z,4.5
2016-12-28T16:00:04.323Z,4.3
2016-12-28T16:05:04.677Z,4.3
2016-12-28T16:10:03.870Z,4.5
2016-12-28T16:15:03.800Z,4.3
2016-12-28T16:20:04.371Z,4.5
2016-12-28T16:25:04.555Z,4.3
2016-12-28T16:30:04.231Z,4.3
2016-12-28T16:35:04.515Z,4.3
2016-12-28T16:40:04.531Z,4.5
2016-12-28T16:45:04.328Z,4.5
2016-12-28T16:50:04.134Z,4.8
2016-12-28T16:55:04.319Z,4.8
2016-12-28T17:00:04.995Z,5.0
2016-12-28T17:05:04.868Z,5.0
2016-12-28T17:10:04.744Z,4.8
2016-12-28T17:15:04.168Z,5.0
2016-12-28T17:20:04.653Z,4.5
2016-12-28T17:25:04.053Z,4.8
2016-12-28T17:30:04.143Z,4.8
2016-12-28T17:35:04.363Z,4.8
2016-12-28T17:40:04.278Z,4.5
2016-12-28T17:45:04.557Z,4.5
2016-12-28T17:50:04.826Z,4.5
2016-12-28T17:55:03.898Z,4.8
2016-12-28T18:00:04.762Z,4.5
2016-12-28T18:05:04.315Z,4.5
2016-12-28T18:10:04.008Z,4.5
2016-12-28T18:15:04.515Z,4.5
2016-12-28T18:20:04.912Z,4.5
2016-12-28T18:25:04.329Z,4.3
2016-12-28T18:30:04.882Z,4.5
2016-12-28T18:35:04.230Z,4.5
2016-12-28T18:40:04.418Z,4.3
2016-12-28T18:45:03.911Z,4.0
2016-12-28T18:50:04.285Z,4.0
2016-12-28T18:55:04.913Z,3.7
2016-12-28T19:00:04.532Z,4.0
2016-12-28T19:05:04.058Z,3.7
2016-12-28T19:10:04.739Z,3.5
2016-12-28T19:15:03.987Z,3.2
2016-12-28T19:20:04.444Z,3.5
2016-12-28T19:25:04.282Z,3.0
2016-12-28T19:30:04.411Z,3.0
2016-12-28T19:35:04.701Z,3.0
2016-12-28T19:40:04.099Z,3.0
2016-12-28T19:45:04.469Z,2.5
2016-12-28T19:50:04.709Z,2.5
2016-12-28T19:55:04.782Z,2.5
2016-12-28T20:00:04.128Z,3.0
2016-12-28T20:05:04.836Z,2.9
2016-12-28T20:10:04.241Z,3.0
2016-12-28T20:15:04.473Z,3.2
2016-12-28T20:20:04.666Z,2.9
2016-12-28T20:25:04.000Z,3.0
2016-12-28T20:30:03.917Z,3.2
2016-12-28T20:35:04.501Z,3.2
2016-12-28T20:40:04.005Z,3.0
2016-12-28T20:45:03.979Z,3.0
2016-12-28T20:50:04.256Z,3.2
2016-12-28T20:55:04.340Z,3.2
2016-12-28T21:00:04.123Z,3.2
2016-12-28T21:05:04.669Z,3.0
2016-12-28T21:10:04.148Z,3.2
2016-12-28T21:15:04.686Z,3.0
2016-12-28T21:20:04.724Z,2.7
2016-12-28T21:25:04.276Z,2.5
2016-12-28T21:30:04.134Z,2.4
2016-12-28T21:35:04.774Z,2.0
2016-12-28T21:40:04.890Z,1.8
2016-12-28T21:45:04.187Z,1.7
2016-12-28T21:50:04.782Z,1.7
2016-12-28T21:55:04.855Z,1.7
2016-12-28T22:00:04.431Z,1.6
2016-12-28T22:05:03.919Z,1.3
2016-12-28T22:10:03.976Z,1.2
2016-12-28T22:15:04.410Z,1.2
2016-12-28T22:20:04.135Z,1.2
2016-12-28T22:25:04.353Z,1.3
2016-12-28T22:30:04.426Z,1.2
2016-12-28T22:35:03.917Z,0.8
2016-12-28T22:40:04.017Z,0.8
2016-12-28T22:45:04.595Z,0.7
2016-12-28T22:50:04.590Z,0.4
2016-12-28T22:55:04.165Z,0.7
2016-12-28T23:00:04.837Z,0.4
2016-12-28T23:05:04.452Z,0.4
2016-12-28T23:10:03.891Z,0.4
2016-12-28T23:15:04.411Z,0.4
2016-12-28T23:20:04.816Z,0.3
2016-12-28T23:25:04.198Z,0.4
2016-12-28T23:30:04.498Z,0.4
2016-12-28T23:35:04.466Z,0.1
2016-12-28T23:40:04.314Z,0.0
2016-12-28T23:45:03.986Z,0.0
2016-12-28T23:50:03.755Z,0.0
2016-12-28T23:55:04.039Z,-0.3
